RJFR/KKJ METAR and TAF weather

Enter ICAO airport designator
Station Type Date Time Source
RJFR METAR 2020/01/17 22:00 UTC NOAA

RJFR 172200Z 24015KT 9999 VCSH FEW015 SCT025 BKN060 08/05 Q1013


Station Type Date Time Source
RJFR Decoded METAR 2020/01/17 22:00 UTC NOAA

Kitakyushu Airport, Japan (RJFR) 33-50N 130-57E 6M
Jan 17, 2020 - 05:00 PM EST / 2020.01.17 2200 UTC
Wind: from the WSW (240 degrees) at 17 MPH (15 KT):0
Visibility: greater than 7 mile(s):0
Sky conditions: mostly cloudy
Weather: showers in the vicinity
Temperature: 46 F (8 C)
Dew Point: 41 F (5 C)
Relative Humidity: 81%
Pressure (altimeter): 29.91 in. Hg (1013 hPa)
ob: RJFR 172200Z 24015KT 9999 VCSH FEW015 SCT025 BKN060 08/05 Q1013
cycle: 22

Station Type Date Time Source
RJFR TAF 2020/01/17 20:00 UTC NOAA

TAF
AMD RJFR 172057Z 1720/1900 25011KT 8000 -SHRA FEW008 SCT015 BKN025
BECMG 1722/1800 09010KT
TEMPO 1723/1803 4000 -SHRA BR FEW005 BKN008 BKN015
BECMG 1806/1809 05005KT
BECMG 1812/1815 11007KT

Example: see airport list